sensor_id;sensor_type;location;lat;lon;timestamp;temperature;humidity
16128;DHT22;8168;49.036;7.690;2023-03-13T00:01:44;12.10;99.90
16128;DHT22;8168;49.036;7.690;2023-03-13T00:04:15;12.10;99.90
16128;DHT22;8168;49.036;7.690;2023-03-13T00:06:46;12.10;99.90
16128;DHT22;8168;49.036;7.690;2023-03-13T00:09:17;12.20;99.90
16128;DHT22;8168;49.036;7.690;2023-03-13T00:11:47;12.10;99.90
16128;DHT22;8168;49.036;7.690;2023-03-13T00:14:18;12.10;99.90
16128;DHT22;8168;49.036;7.690;2023-03-13T00:16:49;12.10;99.90
16128;DHT22;8168;49.036;7.690;2023-03-13T00:19:19;12.20;99.90
16128;DHT22;8168;49.036;7.690;2023-03-13T00:21:50;12.20;99.90
16128;DHT22;8168;49.036;7.690;2023-03-13T00:24:20;12.20;99.90
16128;DHT22;8168;49.036;7.690;2023-03-13T00:26:51;12.30;99.90
16128;DHT22;8168;49.036;7.690;2023-03-13T00:29:22;12.30;99.90
16128;DHT22;8168;49.036;7.690;2023-03-13T00:31:55;12.30;99.90
16128;DHT22;8168;49.036;7.690;2023-03-13T00:34:26;12.30;99.90
16128;DHT22;8168;49.036;7.690;2023-03-13T00:36:57;12.30;99.90
16128;DHT22;8168;49.036;7.690;2023-03-13T00:39:27;12.30;99.90
16128;DHT22;8168;49.036;7.690;2023-03-13T00:41:58;12.30;99.90
16128;DHT22;8168;49.036;7.690;2023-03-13T00:44:29;12.30;99.90
16128;DHT22;8168;49.036;7.690;2023-03-13T00:47:00;12.30;99.90
16128;DHT22;8168;49.036;7.690;2023-03-13T00:49:30;12.20;99.90
16128;DHT22;8168;49.036;7.690;2023-03-13T00:52:01;12.20;99.90
16128;DHT22;8168;49.036;7.690;2023-03-13T00:54:31;12.20;99.90
16128;DHT22;8168;49.036;7.690;2023-03-13T00:57:02;12.10;99.90
16128;DHT22;8168;49.036;7.690;2023-03-13T00:59:33;12.10;99.90
16128;DHT22;8168;49.036;7.690;2023-03-13T01:02:03;12.20;99.90
16128;DHT22;8168;49.036;7.690;2023-03-13T01:04:34;12.10;99.90
16128;DHT22;8168;49.036;7.690;2023-03-13T01:07:05;12.10;99.90
16128;DHT22;8168;49.036;7.690;2023-03-13T01:09:35;12.00;99.90
16128;DHT22;8168;49.036;7.690;2023-03-13T01:12:06;12.00;99.90
16128;DHT22;8168;49.036;7.690;2023-03-13T01:14:37;11.90;99.90
16128;DHT22;8168;49.036;7.690;2023-03-13T01:17:07;11.90;99.90
16128;DHT22;8168;49.036;7.690;2023-03-13T01:19:38;11.90;99.90
16128;DHT22;8168;49.036;7.690;2023-03-13T01:22:08;12.00;99.90
16128;DHT22;8168;49.036;7.690;2023-03-13T01:24:41;11.90;99.90
16128;DHT22;8168;49.036;7.690;2023-03-13T01:27:12;11.80;99.90
16128;DHT22;8168;49.036;7.690;2023-03-13T01:29:43;11.80;99.90
16128;DHT22;8168;49.036;7.690;2023-03-13T01:32:13;11.80;99.90
16128;DHT22;8168;49.036;7.690;2023-03-13T01:34:44;11.80;99.90
16128;DHT22;8168;49.036;7.690;2023-03-13T01:37:14;11.80;99.90
16128;DHT22;8168;49.036;7.690;2023-03-13T01:39:45;11.80;99.90
16128;DHT22;8168;49.036;7.690;2023-03-13T01:42:16;11.80;99.90
16128;DHT22;8168;49.036;7.690;2023-03-13T01:44:52;11.80;99.90
16128;DHT22;8168;49.036;7.690;2023-03-13T01:47:23;11.70;99.90
16128;DHT22;8168;49.036;7.690;2023-03-13T01:49:54;11.60;99.90
16128;DHT22;8168;49.036;7.690;2023-03-13T01:52:26;11.60;99.90
16128;DHT22;8168;49.036;7.690;2023-03-13T01:57:39;11.60;99.90
16128;DHT22;8168;49.036;7.690;2023-03-13T02:00:21;11.50;99.90
16128;DHT22;8168;49.036;7.690;2023-03-13T02:02:54;11.40;99.90
16128;DHT22;8168;49.036;7.690;2023-03-13T02:05:27;11.40;99.90
16128;DHT22;8168;49.036;7.690;2023-03-13T02:08:01;11.40;99.90
16128;DHT22;8168;49.036;7.690;2023-03-13T02:10:38;11.40;99.90
16128;DHT22;8168;49.036;7.690;2023-03-13T02:13:12;11.40;99.90
16128;DHT22;8168;49.036;7.690;2023-03-13T02:15:45;11.40;99.90
16128;DHT22;8168;49.036;7.690;2023-03-13T02:18:16;11.40;99.90
16128;DHT22;8168;49.036;7.690;2023-03-13T02:20:49;11.40;99.90
16128;DHT22;8168;49.036;7.690;2023-03-13T02:23:30;11.40;99.90
16128;DHT22;8168;49.036;7.690;2023-03-13T02:26:04;11.30;99.90
16128;DHT22;8168;49.036;7.690;2023-03-13T02:28:36;11.40;99.90
16128;DHT22;8168;49.036;7.690;2023-03-13T02:31:08;11.40;99.90
16128;DHT22;8168;49.036;7.690;2023-03-13T02:33:41;11.50;99.90
16128;DHT22;8168;49.036;7.690;2023-03-13T02:36:14;11.50;99.90
16128;DHT22;8168;49.036;7.690;2023-03-13T02:38:57;11.50;99.90
16128;DHT22;8168;49.036;7.690;2023-03-13T02:41:29;11.50;99.90
16128;DHT22;8168;49.036;7.690;2023-03-13T02:44:00;11.50;99.90
16128;DHT22;8168;49.036;7.690;2023-03-13T02:46:46;11.50;99.90
16128;DHT22;8168;49.036;7.690;2023-03-13T02:49:26;11.50;99.90
16128;DHT22;8168;49.036;7.690;2023-03-13T02:52:02;11.50;99.90
16128;DHT22;8168;49.036;7.690;2023-03-13T02:54:37;11.50;99.90
16128;DHT22;8168;49.036;7.690;2023-03-13T02:57:11;11.40;99.90
16128;DHT22;8168;49.036;7.690;2023-03-13T02:59:42;11.50;99.90
16128;DHT22;8168;49.036;7.690;2023-03-13T03:02:12;11.40;99.90
16128;DHT22;8168;49.036;7.690;2023-03-13T03:04:43;11.30;99.90
16128;DHT22;8168;49.036;7.690;2023-03-13T03:07:14;11.30;99.90
16128;DHT22;8168;49.036;7.690;2023-03-13T03:09:44;11.30;99.90
16128;DHT22;8168;49.036;7.690;2023-03-13T03:12:15;11.20;99.90
16128;DHT22;8168;49.036;7.690;2023-03-13T03:14:45;11.30;99.90
16128;DHT22;8168;49.036;7.690;2023-03-13T03:17:16;11.30;99.90
16128;DHT22;8168;49.036;7.690;2023-03-13T03:19:47;11.30;99.90
16128;DHT22;8168;49.036;7.690;2023-03-13T03:22:17;11.30;99.90
16128;DHT22;8168;49.036;7.690;2023-03-13T03:24:48;11.30;99.90
16128;DHT22;8168;49.036;7.690;2023-03-13T03:27:19;11.30;99.90
16128;DHT22;8168;49.036;7.690;2023-03-13T03:29:49;11.30;99.90
16128;DHT22;8168;49.036;7.690;2023-03-13T03:32:20;11.30;99.90
16128;DHT22;8168;49.036;7.690;2023-03-13T03:34:50;11.40;99.90
16128;DHT22;8168;49.036;7.690;2023-03-13T03:37:21;11.40;99.90
16128;DHT22;8168;49.036;7.690;2023-03-13T03:39:51;11.40;99.90
16128;DHT22;8168;49.036;7.690;2023-03-13T03:42:22;11.40;99.90
16128;DHT22;8168;49.036;7.690;2023-03-13T03:44:53;11.50;99.90
16128;DHT22;8168;49.036;7.690;2023-03-13T03:47:23;11.50;99.90
16128;DHT22;8168;49.036;7.690;2023-03-13T03:49:54;11.50;99.90
16128;DHT22;8168;49.036;7.690;2023-03-13T03:52:24;11.50;99.90
16128;DHT22;8168;49.036;7.690;2023-03-13T03:54:55;11.50;99.90
16128;DHT22;8168;49.036;7.690;2023-03-13T03:57:26;11.50;99.90
16128;DHT22;8168;49.036;7.690;2023-03-13T03:59:56;11.50;99.90
16128;DHT22;8168;49.036;7.690;2023-03-13T04:02:27;11.60;99.90
16128;DHT22;8168;49.036;7.690;2023-03-13T04:04:57;11.60;99.90
16128;DHT22;8168;49.036;7.690;2023-03-13T04:07:28;11.70;99.90
16128;DHT22;8168;49.036;7.690;2023-03-13T04:09:58;11.70;99.90
16128;DHT22;8168;49.036;7.690;2023-03-13T04:12:29;11.70;99.90
16128;DHT22;8168;49.036;7.690;2023-03-13T04:15:00;11.70;99.90
16128;DHT22;8168;49.036;7.690;2023-03-13T04:17:30;11.70;99.90
16128;DHT22;8168;49.036;7.690;2023-03-13T04:20:01;11.80;99.90
16128;DHT22;8168;49.036;7.690;2023-03-13T04:22:32;11.80;99.90
16128;DHT22;8168;49.036;7.690;2023-03-13T04:25:03;11.80;99.90
16128;DHT22;8168;49.036;7.690;2023-03-13T04:27:33;11.80;99.90
16128;DHT22;8168;49.036;7.690;2023-03-13T04:30:04;11.80;99.90
16128;DHT22;8168;49.036;7.690;2023-03-13T04:32:36;11.80;99.90
16128;DHT22;8168;49.036;7.690;2023-03-13T04:35:07;11.90;99.90
16128;DHT22;8168;49.036;7.690;2023-03-13T04:37:38;11.80;99.90
16128;DHT22;8168;49.036;7.690;2023-03-13T04:40:09;11.90;99.90
16128;DHT22;8168;49.036;7.690;2023-03-13T04:42:40;11.90;99.90
16128;DHT22;8168;49.036;7.690;2023-03-13T04:45:11;11.90;99.90
16128;DHT22;8168;49.036;7.690;2023-03-13T04:47:42;11.90;99.90
16128;DHT22;8168;49.036;7.690;2023-03-13T04:50:12;11.90;99.90
16128;DHT22;8168;49.036;7.690;2023-03-13T04:52:43;11.90;99.90
16128;DHT22;8168;49.036;7.690;2023-03-13T04:55:14;12.00;99.90
16128;DHT22;8168;49.036;7.690;2023-03-13T04:57:44;12.00;99.90
16128;DHT22;8168;49.036;7.690;2023-03-13T05:00:15;12.00;99.90
16128;DHT22;8168;49.036;7.690;2023-03-13T05:02:46;12.00;99.90
16128;DHT22;8168;49.036;7.690;2023-03-13T05:05:16;12.00;99.90
16128;DHT22;8168;49.036;7.690;2023-03-13T05:07:47;12.00;99.90
16128;DHT22;8168;49.036;7.690;2023-03-13T05:10:18;12.10;99.90
16128;DHT22;8168;49.036;7.690;2023-03-13T05:12:48;12.10;99.90
16128;DHT22;8168;49.036;7.690;2023-03-13T05:15:19;12.10;99.90
16128;DHT22;8168;49.036;7.690;2023-03-13T05:17:49;12.10;99.90
16128;DHT22;8168;49.036;7.690;2023-03-13T05:20:20;12.10;99.90
16128;DHT22;8168;49.036;7.690;2023-03-13T05:22:51;12.10;99.90
16128;DHT22;8168;49.036;7.690;2023-03-13T05:25:21;12.10;99.90
16128;DHT22;8168;49.036;7.690;2023-03-13T05:27:52;12.10;99.90
16128;DHT22;8168;49.036;7.690;2023-03-13T05:30:23;12.10;99.90
16128;DHT22;8168;49.036;7.690;2023-03-13T05:32:53;12.10;99.90
16128;DHT22;8168;49.036;7.690;2023-03-13T05:35:24;12.10;99.90
16128;DHT22;8168;49.036;7.690;2023-03-13T05:37:54;12.10;99.90
16128;DHT22;8168;49.036;7.690;2023-03-13T05:40:25;12.10;99.90
16128;DHT22;8168;49.036;7.690;2023-03-13T05:42:56;12.10;99.90
16128;DHT22;8168;49.036;7.690;2023-03-13T05:45:26;12.10;99.90
16128;DHT22;8168;49.036;7.690;2023-03-13T05:47:57;12.10;99.90
16128;DHT22;8168;49.036;7.690;2023-03-13T05:50:30;12.10;99.90
16128;DHT22;8168;49.036;7.690;2023-03-13T05:53:01;12.10;99.90
16128;DHT22;8168;49.036;7.690;2023-03-13T05:55:31;12.10;99.90
16128;DHT22;8168;49.036;7.690;2023-03-13T05:58:02;12.10;99.90
16128;DHT22;8168;49.036;7.690;2023-03-13T06:00:33;12.10;99.90
16128;DHT22;8168;49.036;7.690;2023-03-13T06:03:04;12.10;99.90
16128;DHT22;8168;49.036;7.690;2023-03-13T06:05:35;12.10;99.90
16128;DHT22;8168;49.036;7.690;2023-03-13T06:08:05;12.10;99.90
16128;DHT22;8168;49.036;7.690;2023-03-13T06:10:36;12.20;99.90
16128;DHT22;8168;49.036;7.690;2023-03-13T06:13:07;12.20;99.90
16128;DHT22;8168;49.036;7.690;2023-03-13T06:15:37;12.10;99.90
16128;DHT22;8168;49.036;7.690;2023-03-13T06:18:08;12.20;99.90
16128;DHT22;8168;49.036;7.690;2023-03-13T06:20:39;12.20;99.90
16128;DHT22;8168;49.036;7.690;2023-03-13T06:23:09;12.20;99.90
16128;DHT22;8168;49.036;7.690;2023-03-13T06:25:40;12.20;99.90
16128;DHT22;8168;49.036;7.690;2023-03-13T06:28:10;12.30;99.90
16128;DHT22;8168;49.036;7.690;2023-03-13T06:30:41;12.30;99.90
16128;DHT22;8168;49.036;7.690;2023-03-13T06:33:12;12.30;99.90
16128;DHT22;8168;49.036;7.690;2023-03-13T06:35:43;12.30;99.90
16128;DHT22;8168;49.036;7.690;2023-03-13T06:38:13;12.20;99.90
16128;DHT22;8168;49.036;7.690;2023-03-13T06:40:44;12.20;99.90
16128;DHT22;8168;49.036;7.690;2023-03-13T06:43:15;12.20;99.90
16128;DHT22;8168;49.036;7.690;2023-03-13T06:45:45;12.20;99.90
16128;DHT22;8168;49.036;7.690;2023-03-13T06:48:17;12.20;99.90
16128;DHT22;8168;49.036;7.690;2023-03-13T06:50:48;12.30;99.90
16128;DHT22;8168;49.036;7.690;2023-03-13T06:53:19;12.30;99.90
16128;DHT22;8168;49.036;7.690;2023-03-13T06:55:50;12.30;99.90
16128;DHT22;8168;49.036;7.690;2023-03-13T06:58:21;12.30;99.90
16128;DHT22;8168;49.036;7.690;2023-03-13T07:00:51;12.30;99.90
16128;DHT22;8168;49.036;7.690;2023-03-13T07:03:22;12.30;99.90
16128;DHT22;8168;49.036;7.690;2023-03-13T07:05:57;12.40;99.90
16128;DHT22;8168;49.036;7.690;2023-03-13T07:08:28;12.40;99.90
16128;DHT22;8168;49.036;7.690;2023-03-13T07:11:01;12.50;99.90
16128;DHT22;8168;49.036;7.690;2023-03-13T07:13:32;12.50;99.90
16128;DHT22;8168;49.036;7.690;2023-03-13T07:16:05;12.50;99.90
16128;DHT22;8168;49.036;7.690;2023-03-13T07:18:37;12.50;99.90
16128;DHT22;8168;49.036;7.690;2023-03-13T07:21:10;12.60;99.90
16128;DHT22;8168;49.036;7.690;2023-03-13T07:23:41;12.60;99.90
16128;DHT22;8168;49.036;7.690;2023-03-13T07:26:14;12.70;99.90
16128;DHT22;8168;49.036;7.690;2023-03-13T07:28:45;12.70;99.90
16128;DHT22;8168;49.036;7.690;2023-03-13T07:31:19;12.70;99.90
16128;DHT22;8168;49.036;7.690;2023-03-13T07:33:50;12.70;99.90
16128;DHT22;8168;49.036;7.690;2023-03-13T07:36:26;12.80;99.90
16128;DHT22;8168;49.036;7.690;2023-03-13T07:38:56;12.80;99.90
16128;DHT22;8168;49.036;7.690;2023-03-13T07:41:27;12.80;99.90
16128;DHT22;8168;49.036;7.690;2023-03-13T07:43:58;12.80;99.90
16128;DHT22;8168;49.036;7.690;2023-03-13T07:46:28;12.90;99.90
16128;DHT22;8168;49.036;7.690;2023-03-13T07:48:59;12.90;99.90
16128;DHT22;8168;49.036;7.690;2023-03-13T07:51:29;12.90;99.90
16128;DHT22;8168;49.036;7.690;2023-03-13T07:54:00;12.90;99.90
16128;DHT22;8168;49.036;7.690;2023-03-13T07:56:32;12.90;99.90
16128;DHT22;8168;49.036;7.690;2023-03-13T07:59:02;12.90;99.90
16128;DHT22;8168;49.036;7.690;2023-03-13T08:01:33;13.00;99.90
16128;DHT22;8168;49.036;7.690;2023-03-13T08:04:04;13.00;99.90
16128;DHT22;8168;49.036;7.690;2023-03-13T08:06:34;11.80;99.90
16128;DHT22;8168;49.036;7.690;2023-03-13T08:09:05;13.10;99.90
16128;DHT22;8168;49.036;7.690;2023-03-13T08:11:38;13.10;99.90
16128;DHT22;8168;49.036;7.690;2023-03-13T08:14:14;13.10;99.90
16128;DHT22;8168;49.036;7.690;2023-03-13T08:16:44;13.10;99.90
16128;DHT22;8168;49.036;7.690;2023-03-13T08:19:15;13.10;99.90
16128;DHT22;8168;49.036;7.690;2023-03-13T08:21:45;13.10;99.90
16128;DHT22;8168;49.036;7.690;2023-03-13T08:24:16;13.10;99.90
16128;DHT22;8168;49.036;7.690;2023-03-13T08:26:47;13.10;99.90
16128;DHT22;8168;49.036;7.690;2023-03-13T08:29:17;13.10;99.90
16128;DHT22;8168;49.036;7.690;2023-03-13T08:31:49;13.20;99.90
16128;DHT22;8168;49.036;7.690;2023-03-13T08:34:20;13.20;99.90
16128;DHT22;8168;49.036;7.690;2023-03-13T08:36:51;13.20;99.90
16128;DHT22;8168;49.036;7.690;2023-03-13T08:39:22;13.20;99.90
16128;DHT22;8168;49.036;7.690;2023-03-13T08:41:52;13.30;99.90
16128;DHT22;8168;49.036;7.690;2023-03-13T08:44:23;13.40;99.90
16128;DHT22;8168;49.036;7.690;2023-03-13T08:46:54;13.40;99.90
16128;DHT22;8168;49.036;7.690;2023-03-13T08:49:24;13.50;99.90
16128;DHT22;8168;49.036;7.690;2023-03-13T08:51:55;13.60;99.90
16128;DHT22;8168;49.036;7.690;2023-03-13T08:54:26;13.80;99.90
16128;DHT22;8168;49.036;7.690;2023-03-13T08:56:56;13.90;99.90
16128;DHT22;8168;49.036;7.690;2023-03-13T08:59:27;13.90;99.90
16128;DHT22;8168;49.036;7.690;2023-03-13T09:01:57;14.00;99.90
16128;DHT22;8168;49.036;7.690;2023-03-13T09:04:28;14.10;99.90
16128;DHT22;8168;49.036;7.690;2023-03-13T09:06:59;14.10;99.90
16128;DHT22;8168;49.036;7.690;2023-03-13T09:09:29;14.10;99.90
16128;DHT22;8168;49.036;7.690;2023-03-13T09:12:00;14.10;99.90
16128;DHT22;8168;49.036;7.690;2023-03-13T09:14:31;14.20;99.90
16128;DHT22;8168;49.036;7.690;2023-03-13T09:17:01;14.30;99.90
16128;DHT22;8168;49.036;7.690;2023-03-13T09:19:33;14.40;99.90
16128;DHT22;8168;49.036;7.690;2023-03-13T09:22:04;14.40;99.90
16128;DHT22;8168;49.036;7.690;2023-03-13T09:24:34;14.40;99.90
16128;DHT22;8168;49.036;7.690;2023-03-13T09:27:05;14.50;99.90
16128;DHT22;8168;49.036;7.690;2023-03-13T09:29:36;14.50;99.90
16128;DHT22;8168;49.036;7.690;2023-03-13T09:32:09;14.60;99.90
16128;DHT22;8168;49.036;7.690;2023-03-13T09:34:40;14.60;99.90
16128;DHT22;8168;49.036;7.690;2023-03-13T09:37:11;14.60;99.90
16128;DHT22;8168;49.036;7.690;2023-03-13T09:39:42;14.70;99.90
16128;DHT22;8168;49.036;7.690;2023-03-13T09:42:18;14.70;99.90
16128;DHT22;8168;49.036;7.690;2023-03-13T09:44:59;14.80;99.90
16128;DHT22;8168;49.036;7.690;2023-03-13T09:50:15;14.90;99.90
16128;DHT22;8168;49.036;7.690;2023-03-13T09:52:52;14.90;99.90
16128;DHT22;8168;49.036;7.690;2023-03-13T09:55:34;14.90;99.90
16128;DHT22;8168;49.036;7.690;2023-03-13T10:00:40;15.00;99.90
16128;DHT22;8168;49.036;7.690;2023-03-13T10:03:22;15.10;99.90
16128;DHT22;8168;49.036;7.690;2023-03-13T10:06:16;15.10;99.90
16128;DHT22;8168;49.036;7.690;2023-03-13T10:08:47;15.10;99.90
16128;DHT22;8168;49.036;7.690;2023-03-13T10:11:55;15.10;99.90
16128;DHT22;8168;49.036;7.690;2023-03-13T10:22:45;15.30;99.90
16128;DHT22;8168;49.036;7.690;2023-03-13T10:25:34;15.40;99.90
16128;DHT22;8168;49.036;7.690;2023-03-13T10:28:10;15.40;99.90
16128;DHT22;8168;49.036;7.690;2023-03-13T10:30:56;15.50;99.90
16128;DHT22;8168;49.036;7.690;2023-03-13T10:33:28;15.60;99.90
16128;DHT22;8168;49.036;7.690;2023-03-13T10:36:09;15.70;99.90
16128;DHT22;8168;49.036;7.690;2023-03-13T10:38:50;15.80;99.90
16128;DHT22;8168;49.036;7.690;2023-03-13T10:41:32;15.80;99.90
16128;DHT22;8168;49.036;7.690;2023-03-13T10:44:19;15.90;99.90
16128;DHT22;8168;49.036;7.690;2023-03-13T10:46:50;15.90;99.90
16128;DHT22;8168;49.036;7.690;2023-03-13T10:49:23;16.00;99.90
16128;DHT22;8168;49.036;7.690;2023-03-13T10:51:59;16.10;99.90
16128;DHT22;8168;49.036;7.690;2023-03-13T10:54:33;16.10;99.90
16128;DHT22;8168;49.036;7.690;2023-03-13T11:00:36;16.10;99.90
16128;DHT22;8168;49.036;7.690;2023-03-13T11:03:30;16.10;99.90
16128;DHT22;8168;49.036;7.690;2023-03-13T11:06:03;16.20;99.90
16128;DHT22;8168;49.036;7.690;2023-03-13T11:08:35;16.10;99.90
16128;DHT22;8168;49.036;7.690;2023-03-13T11:11:16;16.10;99.90
16128;DHT22;8168;49.036;7.690;2023-03-13T11:13:48;16.10;99.90
16128;DHT22;8168;49.036;7.690;2023-03-13T11:16:25;17.10;99.90
16128;DHT22;8168;49.036;7.690;2023-03-13T11:22:39;16.20;99.90
16128;DHT22;8168;49.036;7.690;2023-03-13T11:28:06;16.20;99.90
16128;DHT22;8168;49.036;7.690;2023-03-13T11:31:08;16.20;99.90
16128;DHT22;8168;49.036;7.690;2023-03-13T11:53:29;16.80;99.90
16128;DHT22;8168;49.036;7.690;2023-03-13T11:56:31;16.60;99.90
16128;DHT22;8168;49.036;7.690;2023-03-13T11:59:24;16.60;99.90
16128;DHT22;8168;49.036;7.690;2023-03-13T12:02:01;16.60;99.90
16128;DHT22;8168;49.036;7.690;2023-03-13T12:04:40;16.60;99.90
16128;DHT22;8168;49.036;7.690;2023-03-13T12:09:57;16.70;99.90
16128;DHT22;8168;49.036;7.690;2023-03-13T12:18:29;16.90;99.90
16128;DHT22;8168;49.036;7.690;2023-03-13T12:21:04;17.00;99.90
16128;DHT22;8168;49.036;7.690;2023-03-13T12:24:00;17.20;99.90
16128;DHT22;8168;49.036;7.690;2023-03-13T12:27:15;17.30;99.90
16128;DHT22;8168;49.036;7.690;2023-03-13T12:33:02;17.50;99.90
16128;DHT22;8168;49.036;7.690;2023-03-13T12:35:36;17.60;99.90
16128;DHT22;8168;49.036;7.690;2023-03-13T12:38:27;17.60;99.90
16128;DHT22;8168;49.036;7.690;2023-03-13T12:43:51;17.70;99.90
16128;DHT22;8168;49.036;7.690;2023-03-13T12:49:29;17.70;99.90
16128;DHT22;8168;49.036;7.690;2023-03-13T13:00:30;17.90;99.90
16128;DHT22;8168;49.036;7.690;2023-03-13T13:03:18;18.00;99.90
16128;DHT22;8168;49.036;7.690;2023-03-13T13:06:28;18.10;99.90
16128;DHT22;8168;49.036;7.690;2023-03-13T13:09:13;18.20;99.90
16128;DHT22;8168;49.036;7.690;2023-03-13T13:11:46;18.20;99.90
16128;DHT22;8168;49.036;7.690;2023-03-13T13:27:45;18.80;99.90
16128;DHT22;8168;49.036;7.690;2023-03-13T13:32:51;18.90;99.90
16128;DHT22;8168;49.036;7.690;2023-03-13T13:38:27;19.20;99.90
16128;DHT22;8168;49.036;7.690;2023-03-13T13:43:49;19.30;99.90
16128;DHT22;8168;49.036;7.690;2023-03-13T13:46:44;19.30;99.90
16128;DHT22;8168;49.036;7.690;2023-03-13T13:49:19;19.40;99.90
16128;DHT22;8168;49.036;7.690;2023-03-13T13:54:53;19.50;99.90
16128;DHT22;8168;49.036;7.690;2023-03-13T13:57:28;19.50;99.90
16128;DHT22;8168;49.036;7.690;2023-03-13T14:00:22;19.40;99.90
16128;DHT22;8168;49.036;7.690;2023-03-13T14:02:55;19.40;99.90
16128;DHT22;8168;49.036;7.690;2023-03-13T14:05:29;19.40;99.90
16128;DHT22;8168;49.036;7.690;2023-03-13T14:08:03;19.40;99.90
16128;DHT22;8168;49.036;7.690;2023-03-13T14:13:29;19.40;99.90
16128;DHT22;8168;49.036;7.690;2023-03-13T14:16:34;19.40;99.90
16128;DHT22;8168;49.036;7.690;2023-03-13T14:19:28;19.40;99.90
16128;DHT22;8168;49.036;7.690;2023-03-13T14:22:05;19.40;99.90
16128;DHT22;8168;49.036;7.690;2023-03-13T14:24:36;19.40;99.90
16128;DHT22;8168;49.036;7.690;2023-03-13T14:27:15;19.40;99.90
16128;DHT22;8168;49.036;7.690;2023-03-13T14:30:04;19.40;99.90
16128;DHT22;8168;49.036;7.690;2023-03-13T14:32:36;19.50;99.90
16128;DHT22;8168;49.036;7.690;2023-03-13T14:35:10;19.50;99.90
16128;DHT22;8168;49.036;7.690;2023-03-13T14:40:27;19.70;99.90
16128;DHT22;8168;49.036;7.690;2023-03-13T14:42:59;19.70;99.90
16128;DHT22;8168;49.036;7.690;2023-03-13T14:45:33;19.80;99.90
16128;DHT22;8168;49.036;7.690;2023-03-13T14:48:13;19.90;99.90
16128;DHT22;8168;49.036;7.690;2023-03-13T14:50:47;19.90;99.90
16128;DHT22;8168;49.036;7.690;2023-03-13T14:53:20;19.90;99.90
16128;DHT22;8168;49.036;7.690;2023-03-13T14:56:12;20.00;99.90
16128;DHT22;8168;49.036;7.690;2023-03-13T14:58:45;20.10;99.90
16128;DHT22;8168;49.036;7.690;2023-03-13T15:01:25;20.20;99.90
16128;DHT22;8168;49.036;7.690;2023-03-13T15:03:56;20.20;99.90
16128;DHT22;8168;49.036;7.690;2023-03-13T15:06:26;20.20;99.90
16128;DHT22;8168;49.036;7.690;2023-03-13T15:09:19;20.20;99.90
16128;DHT22;8168;49.036;7.690;2023-03-13T15:12:00;20.20;99.90
16128;DHT22;8168;49.036;7.690;2023-03-13T15:17:23;20.40;99.90
16128;DHT22;8168;49.036;7.690;2023-03-13T15:19:56;20.40;99.90
16128;DHT22;8168;49.036;7.690;2023-03-13T15:22:32;20.30;99.90
16128;DHT22;8168;49.036;7.690;2023-03-13T15:25:19;20.30;99.90
16128;DHT22;8168;49.036;7.690;2023-03-13T15:27:50;20.20;99.90
16128;DHT22;8168;49.036;7.690;2023-03-13T15:30:21;20.10;99.90
16128;DHT22;8168;49.036;7.690;2023-03-13T15:32:52;22.90;99.90
16128;DHT22;8168;49.036;7.690;2023-03-13T15:35:31;20.00;99.90
16128;DHT22;8168;49.036;7.690;2023-03-13T15:38:02;20.00;99.60
16128;DHT22;8168;49.036;7.690;2023-03-13T15:40:33;20.00;99.70
16128;DHT22;8168;49.036;7.690;2023-03-13T15:43:03;20.00;98.60
16128;DHT22;8168;49.036;7.690;2023-03-13T15:45:39;20.00;98.30
16128;DHT22;8168;49.036;7.690;2023-03-13T15:48:14;20.00;98.80
16128;DHT22;8168;49.036;7.690;2023-03-13T15:50:49;20.00;98.90
16128;DHT22;8168;49.036;7.690;2023-03-13T15:53:31;19.90;98.90
16128;DHT22;8168;49.036;7.690;2023-03-13T15:56:18;19.90;98.90
16128;DHT22;8168;49.036;7.690;2023-03-13T15:58:49;19.90;99.00
16128;DHT22;8168;49.036;7.690;2023-03-13T16:01:20;19.90;99.10
16128;DHT22;8168;49.036;7.690;2023-03-13T16:03:52;19.80;98.80
16128;DHT22;8168;49.036;7.690;2023-03-13T16:06:22;19.80;98.40
16128;DHT22;8168;49.036;7.690;2023-03-13T16:09:04;19.70;97.90
16128;DHT22;8168;49.036;7.690;2023-03-13T16:11:35;19.70;98.40
16128;DHT22;8168;49.036;7.690;2023-03-13T16:14:06;19.70;98.20
16128;DHT22;8168;49.036;7.690;2023-03-13T16:16:37;19.70;97.90
16128;DHT22;8168;49.036;7.690;2023-03-13T16:19:08;19.70;98.10
16128;DHT22;8168;49.036;7.690;2023-03-13T16:21:39;19.70;98.10
16128;DHT22;8168;49.036;7.690;2023-03-13T16:24:14;19.50;99.90
16128;DHT22;8168;49.036;7.690;2023-03-13T16:26:46;18.70;99.90
16128;DHT22;8168;49.036;7.690;2023-03-13T16:29:17;18.00;99.90
16128;DHT22;8168;49.036;7.690;2023-03-13T16:31:48;17.40;99.90
16128;DHT22;8168;49.036;7.690;2023-03-13T16:34:18;17.00;99.90
16128;DHT22;8168;49.036;7.690;2023-03-13T16:36:49;16.60;99.90
16128;DHT22;8168;49.036;7.690;2023-03-13T16:39:19;16.20;99.90
16128;DHT22;8168;49.036;7.690;2023-03-13T16:41:50;15.90;99.90
16128;DHT22;8168;49.036;7.690;2023-03-13T16:44:20;15.70;99.90
16128;DHT22;8168;49.036;7.690;2023-03-13T16:46:51;15.60;99.90
16128;DHT22;8168;49.036;7.690;2023-03-13T16:49:22;15.50;99.90
16128;DHT22;8168;49.036;7.690;2023-03-13T16:51:52;15.30;99.90
16128;DHT22;8168;49.036;7.690;2023-03-13T16:54:23;15.20;99.90
16128;DHT22;8168;49.036;7.690;2023-03-13T16:56:53;15.00;99.90
16128;DHT22;8168;49.036;7.690;2023-03-13T16:59:24;15.00;99.90
16128;DHT22;8168;49.036;7.690;2023-03-13T17:01:56;13.80;99.90
16128;DHT22;8168;49.036;7.690;2023-03-13T17:04:26;15.00;99.90
16128;DHT22;8168;49.036;7.690;2023-03-13T17:06:57;14.90;99.90
16128;DHT22;8168;49.036;7.690;2023-03-13T17:09:27;14.90;99.90
16128;DHT22;8168;49.036;7.690;2023-03-13T17:11:58;14.90;99.90
16128;DHT22;8168;49.036;7.690;2023-03-13T17:14:28;14.90;99.90
16128;DHT22;8168;49.036;7.690;2023-03-13T17:16:59;14.80;99.90
16128;DHT22;8168;49.036;7.690;2023-03-13T17:19:30;14.80;99.90
16128;DHT22;8168;49.036;7.690;2023-03-13T17:22:00;14.60;99.90
16128;DHT22;8168;49.036;7.690;2023-03-13T17:24:33;14.50;99.90
16128;DHT22;8168;49.036;7.690;2023-03-13T17:27:04;14.40;99.90
16128;DHT22;8168;49.036;7.690;2023-03-13T17:29:34;14.30;99.90
16128;DHT22;8168;49.036;7.690;2023-03-13T17:32:05;14.40;99.90
16128;DHT22;8168;49.036;7.690;2023-03-13T17:34:36;14.40;99.90
16128;DHT22;8168;49.036;7.690;2023-03-13T17:37:18;14.40;99.90
16128;DHT22;8168;49.036;7.690;2023-03-13T17:39:49;14.40;99.90
16128;DHT22;8168;49.036;7.690;2023-03-13T17:42:20;14.30;99.90
16128;DHT22;8168;49.036;7.690;2023-03-13T17:44:51;14.30;99.90
16128;DHT22;8168;49.036;7.690;2023-03-13T17:47:22;14.30;99.90
16128;DHT22;8168;49.036;7.690;2023-03-13T17:49:53;14.30;99.90
16128;DHT22;8168;49.036;7.690;2023-03-13T17:52:25;14.20;99.90
16128;DHT22;8168;49.036;7.690;2023-03-13T17:54:56;14.30;99.90
16128;DHT22;8168;49.036;7.690;2023-03-13T17:57:26;14.30;99.90
16128;DHT22;8168;49.036;7.690;2023-03-13T17:59:57;14.30;99.90
16128;DHT22;8168;49.036;7.690;2023-03-13T18:02:27;14.20;99.90
16128;DHT22;8168;49.036;7.690;2023-03-13T18:04:58;14.20;99.90
16128;DHT22;8168;49.036;7.690;2023-03-13T18:07:28;14.10;99.90
16128;DHT22;8168;49.036;7.690;2023-03-13T18:09:59;13.90;99.90